Time;durP1;ratioP1;P1;durP2;ratioP2;P2;SDS_P1;SDS_P2;PMS_P1;PMS_P2;Temp;Humidity;BMP_temperature;BMP_pressure;BME280_temperature;BME280_humidity;BME280_pressure;Samples;Min_cycle;Max_cycle;Signal;HPM_P1;HPM_P2
2023/07/09 00:00:48;;;;;;;11.98;7.13;;;;;;;22.47;73.89;101639.56;5022433;28;20028;-64
2023/07/09 00:03:14;;;;;;;10.88;7.05;;;;;;;22.49;74.14;101642.03;5016696;28;20025;-64
2023/07/09 00:05:40;;;;;;;14.50;7.25;;;;;;;22.47;74.26;101631.44;5017748;28;20029;-64
2023/07/09 00:08:12;;;;;;;10.75;6.85;;;;;;;22.42;74.31;101636.72;5016878;28;20029;-64
2023/07/09 00:10:38;;;;;;;13.18;7.10;;;;;;;22.43;74.46;101642.97;5010738;28;20060;-64
2023/07/09 00:13:03;;;;;;;17.02;7.78;;;;;;;22.40;74.22;101641.53;5028165;28;20049;-64
2023/07/09 00:15:28;;;;;;;10.48;6.75;;;;;;;22.27;74.21;101644.44;5012399;28;20120;-64
2023/07/09 00:17:53;;;;;;;12.52;7.10;;;;;;;22.37;74.57;101643.88;5025865;28;20472;-64
2023/07/09 00:20:19;;;;;;;13.27;7.00;;;;;;;22.34;74.60;101656.00;5015202;28;20029;-64
2023/07/09 00:22:47;;;;;;;11.05;6.63;;;;;;;22.38;74.57;101656.34;5009431;28;20068;-64
2023/07/09 00:25:16;;;;;;;14.40;7.35;;;;;;;22.35;74.57;101649.53;5022377;28;20061;-64
2023/07/09 00:27:44;;;;;;;14.13;7.25;;;;;;;22.29;74.77;101658.56;5021092;28;20017;-64
2023/07/09 00:30:15;;;;;;;12.93;6.78;;;;;;;22.27;75.08;101652.56;5013302;28;20105;-64
2023/07/09 00:32:43;;;;;;;11.38;7.50;;;;;;;22.22;75.04;101649.69;5011602;28;20033;-64
2023/07/09 00:35:09;;;;;;;10.20;6.60;;;;;;;22.07;75.20;101654.69;5008936;28;20059;-64
2023/07/09 00:37:35;;;;;;;12.82;6.88;;;;;;;21.97;75.22;101663.25;5022617;28;20030;-64
2023/07/09 00:40:00;;;;;;;9.90;6.18;;;;;;;21.95;75.04;101659.97;5021592;28;20083;-64
2023/07/09 00:42:25;;;;;;;11.60;6.53;;;;;;;21.84;75.20;101661.56;5016983;28;20474;-64
2023/07/09 00:44:52;;;;;;;12.13;6.70;;;;;;;21.83;75.56;101662.59;5021325;28;20049;-64
2023/07/09 00:47:23;;;;;;;9.82;6.40;;;;;;;21.88;75.42;101670.03;5017833;28;20035;-64
2023/07/09 00:49:49;;;;;;;12.20;7.32;;;;;;;21.87;75.72;101671.91;5016497;28;20029;-64
2023/07/09 00:52:27;;;;;;;15.40;7.45;;;;;;;21.88;76.00;101673.56;5009724;28;20390;-64
2023/07/09 00:54:54;;;;;;;15.90;8.10;;;;;;;21.75;76.16;101662.09;5016671;28;20112;-64
2023/07/09 00:57:24;;;;;;;13.07;7.35;;;;;;;21.86;76.01;101659.44;5018218;28;20030;-64
2023/07/09 00:59:55;;;;;;;13.65;7.93;;;;;;;21.68;75.99;101655.91;5010492;28;20041;-64
2023/07/09 01:02:24;;;;;;;11.20;7.15;;;;;;;21.63;76.48;101657.41;5017832;28;20123;-64
2023/07/09 01:04:54;;;;;;;13.15;7.65;;;;;;;21.60;76.49;101662.44;5017432;28;20444;-64
2023/07/09 01:07:19;;;;;;;11.65;7.47;;;;;;;21.45;76.71;101656.56;5015650;28;20025;-64
2023/07/09 01:09:45;;;;;;;15.43;8.65;;;;;;;21.43;77.13;101661.38;5015587;28;20030;-64
2023/07/09 01:12:10;;;;;;;14.65;7.68;;;;;;;21.38;77.39;101651.19;5010325;28;20030;-64
2023/07/09 01:14:37;;;;;;;12.27;8.20;;;;;;;21.26;77.96;101659.22;5015179;28;20083;-64
2023/07/09 01:17:07;;;;;;;15.95;8.90;;;;;;;21.22;78.52;101657.16;5015644;28;20033;-64
2023/07/09 01:19:43;;;;;;;16.35;9.40;;;;;;;21.21;78.97;101650.91;5013076;28;20026;-64
2023/07/09 01:22:14;;;;;;;17.42;10.23;;;;;;;21.20;79.47;101651.97;5019461;28;20033;-64
2023/07/09 01:24:55;;;;;;;15.45;9.23;;;;;;;21.21;79.80;101645.53;5012594;28;20490;-64
2023/07/09 01:27:26;;;;;;;12.18;8.30;;;;;;;21.31;79.58;101659.38;5014281;28;20035;-64
2023/07/09 01:29:53;;;;;;;13.10;7.40;;;;;;;21.34;78.93;101661.63;5017168;28;20029;-64
2023/07/09 01:32:21;;;;;;;13.00;8.20;;;;;;;21.26;79.08;101670.03;5022193;28;20029;-63
2023/07/09 01:34:49;;;;;;;15.45;8.45;;;;;;;21.23;78.87;101675.00;5017296;28;20610;-64
2023/07/09 01:37:16;;;;;;;16.88;8.73;;;;;;;21.18;79.07;101662.16;5023727;28;20030;-64
2023/07/09 01:39:42;;;;;;;16.87;9.17;;;;;;;21.26;79.53;101675.44;5021316;28;20021;-63
2023/07/09 01:42:08;;;;;;;17.10;10.00;;;;;;;21.25;79.57;101681.88;5019911;28;20080;-64
2023/07/09 01:44:35;;;;;;;14.48;10.35;;;;;;;21.32;79.42;101677.25;5019580;28;20080;-64
2023/07/09 01:47:03;;;;;;;19.40;9.98;;;;;;;21.29;79.32;101679.56;5017877;28;20643;-64
2023/07/09 01:49:29;;;;;;;16.33;9.93;;;;;;;21.33;79.26;101680.75;5023249;28;20037;-63
2023/07/09 01:51:55;;;;;;;15.90;11.10;;;;;;;21.39;78.82;101687.97;5020346;28;20029;-64
2023/07/09 01:54:20;;;;;;;17.77;10.15;;;;;;;21.31;78.75;101688.28;5023003;28;20029;-64
2023/07/09 01:56:46;;;;;;;14.70;9.80;;;;;;;21.28;78.41;101686.00;5026039;28;20116;-64
2023/07/09 01:59:11;;;;;;;16.50;9.95;;;;;;;21.27;78.44;101690.59;5019538;28;20065;-64
2023/07/09 02:01:38;;;;;;;15.23;10.32;;;;;;;21.30;78.47;101692.84;5017920;28;20029;-64
2023/07/09 02:04:03;;;;;;;15.32;10.52;;;;;;;21.18;78.73;101691.88;5017196;28;20022;-64
2023/07/09 02:06:31;;;;;;;16.88;11.43;;;;;;;21.23;78.94;101686.69;5023088;28;20081;-64
2023/07/09 02:08:58;;;;;;;15.00;10.68;;;;;;;21.24;78.76;101688.34;5021759;28;20258;-64
2023/07/09 02:11:23;;;;;;;17.00;11.18;;;;;;;21.20;78.85;101692.50;5023597;28;20108;-64
2023/07/09 02:13:48;;;;;;;18.08;11.23;;;;;;;21.20;79.25;101686.25;5020926;28;20451;-64
2023/07/09 02:16:14;;;;;;;19.83;10.77;;;;;;;21.24;78.83;101688.34;5012400;28;20034;-64
2023/07/09 02:18:39;;;;;;;18.25;11.10;;;;;;;21.23;78.89;101693.94;5026014;28;20478;-64
2023/07/09 02:21:04;;;;;;;15.95;11.30;;;;;;;21.23;78.98;101683.13;5022483;28;20025;-64
2023/07/09 02:23:29;;;;;;;17.10;11.50;;;;;;;21.11;79.27;101691.13;5013019;28;20041;-64
2023/07/09 02:25:55;;;;;;;17.58;11.63;;;;;;;21.18;79.22;101682.97;5014418;28;20529;-64
2023/07/09 02:28:20;;;;;;;19.25;12.15;;;;;;;21.17;79.52;101682.13;5011858;28;20042;-64
2023/07/09 02:30:45;;;;;;;17.70;11.43;;;;;;;21.17;79.13;101684.84;5013533;28;20057;-64
2023/07/09 02:33:11;;;;;;;18.90;11.75;;;;;;;21.15;79.11;101678.81;5020760;28;20033;-64
2023/07/09 02:35:36;;;;;;;19.35;13.00;;;;;;;21.06;79.22;101680.13;5018372;28;20072;-64
2023/07/09 02:38:02;;;;;;;17.17;11.07;;;;;;;21.13;79.53;101680.91;5021561;28;20110;-64
2023/07/09 02:40:27;;;;;;;20.75;11.55;;;;;;;21.10;79.19;101677.81;5017290;28;20048;-64
2023/07/09 02:42:53;;;;;;;19.13;13.20;;;;;;;21.05;79.16;101686.56;5013726;28;20503;-64
2023/07/09 02:45:18;;;;;;;17.08;12.18;;;;;;;21.07;79.48;101686.34;5014592;28;20033;-64
2023/07/09 02:47:43;;;;;;;18.20;11.70;;;;;;;21.03;79.64;101681.38;5016031;28;20040;-64
2023/07/09 02:50:09;;;;;;;19.77;12.82;;;;;;;21.07;79.54;101681.78;5014492;28;20140;-64
2023/07/09 02:52:34;;;;;;;21.45;12.20;;;;;;;21.07;79.65;101681.78;5013352;28;20028;-64
2023/07/09 02:54:59;;;;;;;18.20;12.20;;;;;;;21.04;79.32;101682.22;5011933;28;20013;-64
2023/07/09 02:57:24;;;;;;;19.48;12.90;;;;;;;21.03;79.47;101685.97;5021554;28;20045;-64
2023/07/09 02:59:50;;;;;;;20.58;13.90;;;;;;;21.00;79.39;101681.84;5023742;28;20025;-64
2023/07/09 03:02:15;;;;;;;15.32;11.50;;;;;;;21.05;79.39;101678.47;5023306;28;20491;-64
2023/07/09 03:04:40;;;;;;;16.48;11.57;;;;;;;20.97;78.83;101676.88;5025866;28;20036;-64
2023/07/09 03:07:05;;;;;;;20.95;11.57;;;;;;;20.93;78.92;101678.34;5016217;28;20026;-64
2023/07/09 03:09:31;;;;;;;16.45;11.30;;;;;;;20.90;78.74;101675.28;5018188;28;20399;-63
2023/07/09 03:11:56;;;;;;;14.25;10.15;;;;;;;20.88;78.89;101682.75;5019586;28;20036;-64
2023/07/09 03:14:22;;;;;;;13.23;10.40;;;;;;;20.84;78.73;101681.56;5018209;28;20617;-64
2023/07/09 03:16:47;;;;;;;15.57;10.65;;;;;;;20.83;78.94;101671.78;5018695;28;20108;-64
2023/07/09 03:19:12;;;;;;;21.27;11.65;;;;;;;20.83;79.15;101678.03;5021050;28;20434;-64
2023/07/09 03:21:38;;;;;;;17.00;12.00;;;;;;;20.86;79.08;101682.16;5014243;28;20025;-64
2023/07/09 03:24:04;;;;;;;20.13;12.45;;;;;;;20.86;79.20;101679.47;5023187;28;20017;-64
2023/07/09 03:26:29;;;;;;;18.85;12.07;;;;;;;20.82;79.74;101679.06;5013777;28;20518;-64
2023/07/09 03:28:55;;;;;;;25.30;14.77;;;;;;;20.91;79.79;101672.34;5015045;28;20025;-64
2023/07/09 03:31:21;;;;;;;24.65;15.90;;;;;;;20.92;79.85;101684.81;5023835;28;20025;-64
2023/07/09 03:33:47;;;;;;;23.23;15.65;;;;;;;20.89;80.09;101679.84;5016620;28;20034;-64
2023/07/09 03:36:13;;;;;;;26.30;15.55;;;;;;;20.96;79.75;101679.78;5013953;28;20024;-64
2023/07/09 03:38:39;;;;;;;22.77;15.27;;;;;;;20.93;79.82;101672.97;5023625;28;20108;-63
2023/07/09 03:41:04;;;;;;;21.27;13.95;;;;;;;20.89;80.08;101679.00;5013684;28;20457;-64
2023/07/09 03:43:29;;;;;;;20.63;13.98;;;;;;;20.89;80.03;101673.63;5012317;28;20072;-64
2023/07/09 03:45:55;;;;;;;21.60;14.82;;;;;;;20.88;79.82;101674.66;5021873;28;20037;-64
2023/07/09 03:48:20;;;;;;;20.00;14.77;;;;;;;20.90;79.91;101681.50;5026580;28;20486;-64
2023/07/09 03:50:47;;;;;;;23.35;14.75;;;;;;;20.93;79.81;101680.22;5026646;28;20482;-63
2023/07/09 03:53:12;;;;;;;22.08;14.65;;;;;;;20.88;79.87;101672.78;5027779;28;20105;-64
2023/07/09 03:55:38;;;;;;;21.33;15.35;;;;;;;20.86;80.17;101668.66;5012287;28;20097;-64
2023/07/09 03:58:04;;;;;;;21.25;15.55;;;;;;;20.89;80.24;101668.22;5012934;28;20045;-63
2023/07/09 04:00:30;;;;;;;20.65;15.48;;;;;;;20.90;80.09;101669.88;5020738;28;20026;-64
2023/07/09 04:02:59;;;;;;;24.13;15.85;;;;;;;20.92;80.04;101665.91;5015923;28;20021;-64
2023/07/09 04:05:24;;;;;;;22.35;15.18;;;;;;;20.95;79.88;101678.13;5024057;28;20060;-64
2023/07/09 04:07:50;;;;;;;24.15;14.73;;;;;;;20.95;79.74;101670.88;5018439;28;20654;-64
2023/07/09 04:10:16;;;;;;;25.05;16.08;;;;;;;20.97;80.17;101676.88;5021349;28;20025;-64
2023/07/09 04:12:41;;;;;;;26.20;16.58;;;;;;;20.98;80.14;101673.13;5017359;28;20507;-64
2023/07/09 04:15:07;;;;;;;24.83;17.20;;;;;;;20.99;80.23;101671.25;5018905;28;20087;-64
2023/07/09 04:17:33;;;;;;;26.75;17.42;;;;;;;21.04;80.14;101671.41;5019962;28;20032;-64
2023/07/09 04:19:58;;;;;;;23.63;17.17;;;;;;;21.05;80.51;101678.47;5019954;28;20037;-64
2023/07/09 04:22:24;;;;;;;24.45;16.60;;;;;;;21.07;80.38;101676.38;5012019;28;20030;-64
2023/07/09 04:24:49;;;;;;;25.83;17.05;;;;;;;21.08;80.47;101677.19;5023679;28;20029;-64
2023/07/09 04:27:15;;;;;;;22.20;16.58;;;;;;;21.06;80.65;101668.50;5016253;28;20037;-63
2023/07/09 04:29:40;;;;;;;21.52;16.42;;;;;;;21.06;80.93;101680.13;5017229;28;20495;-64
2023/07/09 04:32:14;;;;;;;23.67;16.80;;;;;;;21.13;80.75;101680.09;5014128;28;20033;-63
2023/07/09 04:34:39;;;;;;;25.95;17.35;;;;;;;21.15;80.43;101678.81;5023978;28;20021;-63
2023/07/09 04:37:07;;;;;;;25.45;19.10;;;;;;;21.22;80.30;101676.88;5019373;28;20108;-64
2023/07/09 04:39:32;;;;;;;29.65;20.05;;;;;;;21.28;80.53;101681.44;5015121;28;20017;-64
2023/07/09 04:41:57;;;;;;;27.52;19.70;;;;;;;21.38;80.60;101674.69;5016193;28;20102;-64
2023/07/09 04:44:23;;;;;;;25.08;17.55;;;;;;;21.38;80.29;101678.22;5009143;28;20040;-64
2023/07/09 04:46:49;;;;;;;25.67;17.13;;;;;;;21.34;80.58;101677.84;5010472;28;20750;-64
2023/07/09 04:49:14;;;;;;;23.90;16.02;;;;;;;21.33;81.06;101675.38;5019658;28;20040;-64
2023/07/09 04:51:40;;;;;;;25.17;17.17;;;;;;;21.30;81.33;101683.91;5021763;28;20021;-64
2023/07/09 04:54:05;;;;;;;24.27;18.10;;;;;;;21.31;81.87;101681.00;5013734;28;20029;-64
2023/07/09 04:56:30;;;;;;;22.38;17.75;;;;;;;21.34;82.14;101685.94;5016476;28;20101;-64
2023/07/09 04:58:56;;;;;;;26.52;19.38;;;;;;;21.45;82.04;101683.59;5018598;28;20072;-63
2023/07/09 05:01:22;;;;;;;30.08;20.90;;;;;;;21.54;82.18;101687.66;5019714;28;20020;-64
2023/07/09 05:03:47;;;;;;;33.97;23.02;;;;;;;21.62;81.05;101679.25;5020099;28;20394;-63
2023/07/09 05:06:13;;;;;;;27.83;22.52;;;;;;;21.71;81.20;101683.34;5013294;28;20033;-64
2023/07/09 05:08:38;;;;;;;31.63;22.45;;;;;;;21.84;80.75;101688.59;5014713;28;20431;-64
2023/07/09 05:11:03;;;;;;;29.20;22.77;;;;;;;21.96;80.38;101683.25;5018496;28;20395;-64
2023/07/09 05:13:29;;;;;;;28.80;22.38;;;;;;;22.05;80.16;101689.25;5025167;28;20025;-64
2023/07/09 05:15:54;;;;;;;32.58;22.55;;;;;;;22.13;80.01;101687.06;5018446;28;20529;-64
2023/07/09 05:18:20;;;;;;;29.40;20.80;;;;;;;22.21;80.06;101680.50;5025140;28;20022;-64
2023/07/09 05:20:46;;;;;;;29.75;20.90;;;;;;;22.30;80.10;101689.16;5014103;28;20117;-64
2023/07/09 05:23:11;;;;;;;31.65;21.40;;;;;;;22.39;79.86;101677.78;5016012;28;20029;-64
2023/07/09 05:25:36;;;;;;;31.25;22.48;;;;;;;22.47;79.87;101688.28;5020264;28;20026;-63
2023/07/09 05:28:03;;;;;;;29.75;22.80;;;;;;;22.58;79.64;101685.88;5011700;28;20025;-63
2023/07/09 05:30:28;;;;;;;30.55;21.85;;;;;;;22.61;79.48;101691.66;5015831;28;20030;-64
2023/07/09 05:32:57;;;;;;;33.75;24.70;;;;;;;22.66;78.77;101680.94;5018182;28;20056;-64
2023/07/09 05:35:22;;;;;;;33.05;25.17;;;;;;;22.76;78.16;101680.38;5022347;28;20047;-64
2023/07/09 05:37:48;;;;;;;35.47;25.75;;;;;;;22.83;77.94;101681.13;5013894;28;20555;-64
2023/07/09 05:40:13;;;;;;;36.67;27.23;;;;;;;22.92;77.48;101685.19;5018563;28;20055;-64
2023/07/09 05:42:38;;;;;;;34.45;25.63;;;;;;;23.00;77.12;101682.13;5022319;28;20022;-64
2023/07/09 05:45:04;;;;;;;35.10;26.52;;;;;;;23.10;77.11;101681.56;5018529;28;20514;-63
2023/07/09 05:47:29;;;;;;;35.05;26.83;;;;;;;23.19;76.99;101682.88;5020422;28;20034;-64
2023/07/09 05:49:55;;;;;;;37.42;26.42;;;;;;;23.28;76.78;101683.34;5021213;28;20018;-64
2023/07/09 05:52:22;;;;;;;36.03;26.35;;;;;;;23.35;76.67;101690.31;5017707;28;20026;-64
2023/07/09 05:54:51;;;;;;;36.80;26.23;;;;;;;23.44;76.54;101688.09;5014236;28;20033;-64
2023/07/09 05:57:17;;;;;;;33.38;26.35;;;;;;;23.52;76.15;101690.44;5011873;28;20033;-64
2023/07/09 05:59:42;;;;;;;33.35;24.80;;;;;;;23.59;75.99;101683.03;5017701;28;20092;-64
2023/07/09 06:02:12;;;;;;;34.58;25.98;;;;;;;23.71;75.72;101688.47;5024646;28;20041;-63
2023/07/09 06:04:38;;;;;;;34.40;25.70;;;;;;;23.78;75.51;101690.00;5016104;28;20032;-63
2023/07/09 06:07:04;;;;;;;32.45;24.88;;;;;;;23.88;75.26;101691.28;5016341;28;20022;-64
2023/07/09 06:09:30;;;;;;;35.10;25.08;;;;;;;23.93;74.53;101689.50;5020375;28;20126;-64
2023/07/09 06:11:55;;;;;;;34.28;26.75;;;;;;;24.00;74.65;101697.53;5017355;28;20026;-63
2023/07/09 06:14:21;;;;;;;36.47;26.65;;;;;;;24.09;74.56;101696.06;5014775;28;20099;-64
2023/07/09 06:16:46;;;;;;;32.47;27.08;;;;;;;24.13;74.14;101691.81;5018862;28;20404;-64
2023/07/09 06:19:11;;;;;;;35.33;27.10;;;;;;;24.21;74.21;101704.19;5016802;28;20022;-64
2023/07/09 06:21:36;;;;;;;35.13;26.60;;;;;;;24.26;73.96;101710.53;5018004;28;20456;-64
2023/07/09 06:24:02;;;;;;;35.10;27.75;;;;;;;24.32;73.90;101703.38;5025985;28;20029;-64
2023/07/09 06:26:27;;;;;;;33.55;26.00;;;;;;;24.36;73.39;101702.66;5022558;28;20491;-64
2023/07/09 06:28:52;;;;;;;31.52;25.38;;;;;;;24.46;73.81;101706.63;5019746;28;20034;-63
2023/07/09 06:31:20;;;;;;;35.10;24.80;;;;;;;24.55;73.42;101707.88;5018165;28;20666;-64
2023/07/09 06:33:46;;;;;;;30.87;22.73;;;;;;;24.63;73.40;101705.63;5017935;28;20661;-64
2023/07/09 06:36:11;;;;;;;30.73;21.70;;;;;;;24.71;72.74;101699.78;5019468;28;20117;-64
2023/07/09 06:38:37;;;;;;;29.30;21.38;;;;;;;24.80;72.56;101711.06;5016504;28;20146;-64
2023/07/09 06:41:02;;;;;;;27.55;20.27;;;;;;;24.89;71.94;101706.91;5028947;28;20033;-63
2023/07/09 06:43:27;;;;;;;28.85;20.85;;;;;;;24.97;71.68;101709.22;5023095;28;20044;-64
2023/07/09 06:45:58;;;;;;;24.23;18.80;;;;;;;25.05;71.15;101704.47;5018558;28;20112;-64
2023/07/09 06:48:25;;;;;;;23.05;18.05;;;;;;;25.17;71.00;101705.25;5017246;28;20033;-64
2023/07/09 06:50:53;;;;;;;28.70;19.50;;;;;;;25.22;70.70;101705.31;5017215;28;20064;-64
2023/07/09 06:53:20;;;;;;;30.00;19.40;;;;;;;25.32;70.85;101698.13;5020580;28;20033;-64
2023/07/09 06:55:45;;;;;;;24.00;16.90;;;;;;;25.41;70.03;101703.97;5019093;28;20025;-64
2023/07/09 06:58:11;;;;;;;20.60;15.48;;;;;;;25.50;69.82;101701.69;5019795;28;20026;-64
2023/07/09 07:00:36;;;;;;;25.08;16.58;;;;;;;25.55;68.77;101699.84;5016978;28;20061;-64
2023/07/09 07:03:02;;;;;;;21.67;15.70;;;;;;;25.61;68.26;101707.00;5022054;28;20022;-64
2023/07/09 07:05:27;;;;;;;19.33;14.52;;;;;;;25.70;68.08;101702.00;5015806;28;20087;-64
2023/07/09 07:07:53;;;;;;;21.35;15.48;;;;;;;25.78;67.70;101711.66;5019276;28;20028;-64
2023/07/09 07:10:19;;;;;;;25.58;14.65;;;;;;;25.84;67.05;101707.91;5023213;28;20511;-64
2023/07/09 07:12:47;;;;;;;23.35;14.88;;;;;;;25.91;66.69;101703.09;5009940;28;20026;-64
2023/07/09 07:15:14;;;;;;;21.00;14.57;;;;;;;25.97;66.93;101712.16;5017439;28;20026;-63
2023/07/09 07:17:39;;;;;;;25.30;13.90;;;;;;;26.07;66.49;101709.59;5021329;28;20541;-64
2023/07/09 07:20:06;;;;;;;22.13;13.95;;;;;;;26.14;66.54;101708.31;5019197;28;20036;-64
2023/07/09 07:22:31;;;;;;;21.35;14.50;;;;;;;26.23;66.49;101712.25;5013293;28;20484;-64
2023/07/09 07:24:56;;;;;;;23.08;14.48;;;;;;;26.30;65.63;101716.66;5013276;28;20022;-64
2023/07/09 07:27:22;;;;;;;23.23;13.85;;;;;;;26.40;65.60;101711.38;5021939;28;20172;-64
2023/07/09 07:29:47;;;;;;;21.10;13.80;;;;;;;26.52;65.46;101714.78;5020228;28;20037;-64
2023/07/09 07:32:12;;;;;;;20.10;13.20;;;;;;;26.60;65.41;101717.06;5014904;28;20032;-64
2023/07/09 07:34:37;;;;;;;23.92;13.90;;;;;;;26.65;65.06;101717.13;5022374;28;20387;-64
2023/07/09 07:37:03;;;;;;;23.88;14.40;;;;;;;26.73;65.09;101716.66;5010677;28;20036;-64
2023/07/09 07:39:29;;;;;;;19.42;12.63;;;;;;;26.80;64.91;101716.44;5023622;28;20100;-64
2023/07/09 07:41:55;;;;;;;16.98;10.70;;;;;;;26.86;64.00;101716.22;5017998;28;20049;-63
2023/07/09 07:44:21;;;;;;;16.98;10.35;;;;;;;26.94;63.90;101712.22;5018385;28;20021;-63
2023/07/09 07:46:46;;;;;;;17.13;9.15;;;;;;;27.00;62.85;101700.31;5014898;28;20083;-63
2023/07/09 07:49:12;;;;;;;11.77;7.15;;;;;;;27.05;60.70;101707.72;5020325;28;20076;-64
2023/07/09 07:51:38;;;;;;;14.40;7.45;;;;;;;27.15;59.28;101714.06;5018971;28;20036;-63
2023/07/09 07:54:03;;;;;;;14.18;7.03;;;;;;;27.22;58.25;101705.69;5014875;28;20040;-63
2023/07/09 07:56:29;;;;;;;14.70;6.65;;;;;;;27.22;57.96;101705.69;5014079;28;20018;-63
2023/07/09 07:58:54;;;;;;;12.57;7.70;;;;;;;27.34;57.74;101709.03;5018599;28;20025;-63
2023/07/09 08:01:19;;;;;;;11.30;8.07;;;;;;;27.39;56.81;101709.06;5015996;28;20034;-63
2023/07/09 08:03:45;;;;;;;17.05;7.72;;;;;;;27.41;57.01;101708.81;5019941;28;20695;-64
2023/07/09 08:06:11;;;;;;;15.98;8.73;;;;;;;27.48;57.37;101712.16;5018235;28;20030;-64
2023/07/09 08:08:37;;;;;;;13.57;8.48;;;;;;;27.52;57.65;101709.72;5024797;28;20487;-64
2023/07/09 08:11:04;;;;;;;15.20;9.38;;;;;;;27.50;57.38;101700.97;5017416;28;20029;-64
2023/07/09 08:13:33;;;;;;;15.83;9.30;;;;;;;27.58;57.37;101704.03;5020030;28;20018;-64
2023/07/09 08:15:58;;;;;;;16.25;8.80;;;;;;;27.73;57.47;101697.84;5018683;28;20037;-64
2023/07/09 08:18:23;;;;;;;12.38;8.50;;;;;;;27.84;57.48;101698.75;5015776;28;20128;-64
2023/07/09 08:20:49;;;;;;;11.88;8.13;;;;;;;27.96;57.49;101702.09;5014977;28;20112;-64
2023/07/09 08:23:14;;;;;;;12.70;8.45;;;;;;;28.07;56.69;101706.53;5026339;28;20024;-63
2023/07/09 08:25:39;;;;;;;14.25;8.90;;;;;;;27.99;55.63;101705.09;5019303;28;20021;-64
2023/07/09 08:28:05;;;;;;;19.23;9.63;;;;;;;28.02;55.66;101698.28;5018930;28;20029;-64
2023/07/09 08:30:30;;;;;;;13.65;8.52;;;;;;;28.03;55.50;101702.66;5012158;28;20036;-63
2023/07/09 08:32:57;;;;;;;14.32;8.70;;;;;;;28.07;55.70;101692.88;5010237;28;20104;-64
2023/07/09 08:35:22;;;;;;;17.38;9.73;;;;;;;28.13;55.99;101693.72;5017802;28;20026;-64
2023/07/09 08:37:47;;;;;;;15.23;8.27;;;;;;;28.18;55.51;101691.81;5021389;28;20036;-64
2023/07/09 08:40:15;;;;;;;13.10;8.60;;;;;;;28.26;55.60;101696.78;5013093;28;20116;-64
2023/07/09 08:42:45;;;;;;;14.43;8.00;;;;;;;28.28;54.27;101691.03;5018205;28;20025;-64
2023/07/09 08:45:24;;;;;;;16.10;8.68;;;;;;;28.31;54.88;101693.25;5019592;28;20033;-64
2023/07/09 08:48:13;;;;;;;14.63;8.30;;;;;;;28.57;55.66;101689.47;5018017;28;20025;-64
2023/07/09 08:50:43;;;;;;;14.07;8.07;;;;;;;28.80;54.86;101698.28;5020723;28;20036;-64
2023/07/09 08:53:19;;;;;;;13.95;8.00;;;;;;;28.84;54.11;101700.19;5019948;28;20521;-65
2023/07/09 08:55:46;;;;;;;14.30;7.95;;;;;;;28.98;54.57;101698.59;5012895;28;20032;-64
2023/07/09 08:58:25;;;;;;;12.05;6.32;;;;;;;28.97;52.21;101707.91;5023441;28;20021;-64
2023/07/09 09:00:56;;;;;;;10.73;6.28;;;;;;;28.98;51.58;101708.72;5026330;28;20030;-64
2023/07/09 09:03:46;;;;;;;11.23;6.00;;;;;;;29.07;51.23;101703.53;5025562;28;20018;-64
2023/07/09 09:06:14;;;;;;;10.50;6.50;;;;;;;29.11;50.68;101704.63;5024786;28;20026;-64
2023/07/09 09:08:41;;;;;;;9.35;6.25;;;;;;;29.17;50.44;101701.59;5019221;28;20537;-64
2023/07/09 09:11:34;;;;;;;12.70;6.68;;;;;;;29.39;51.27;101698.56;5024806;28;20025;-64
2023/07/09 09:14:05;;;;;;;40.70;7.60;;;;;;;29.55;50.82;101688.47;5014357;28;20033;-64
2023/07/09 09:16:39;;;;;;;12.13;6.00;;;;;;;29.69;50.95;101683.22;5018648;28;20018;-64
2023/07/09 09:19:16;;;;;;;9.40;5.70;;;;;;;29.79;50.24;101694.16;5011649;28;20022;-64
2023/07/09 09:21:42;;;;;;;9.07;6.25;;;;;;;29.94;50.18;101687.81;5024597;28;20091;-64
2023/07/09 09:24:34;;;;;;;10.45;5.95;;;;;;;30.20;49.30;101694.84;5021920;28;20033;-64
2023/07/09 09:26:59;;;;;;;9.82;6.13;;;;;;;30.08;49.09;101699.84;5006233;28;20067;-64
2023/07/09 09:29:25;;;;;;;8.48;5.80;;;;;;;30.16;48.44;101691.03;5022133;28;20495;-64
2023/07/09 09:31:57;;;;;;;8.73;5.65;;;;;;;30.23;47.75;101691.53;5020869;28;20487;-64
2023/07/09 09:34:27;;;;;;;13.10;5.97;;;;;;;30.25;47.40;101691.25;5023712;28;20029;-64
2023/07/09 09:36:53;;;;;;;13.15;5.95;;;;;;;30.42;48.50;101684.31;5029163;28;20025;-64
2023/07/09 09:39:20;;;;;;;8.93;5.88;;;;;;;30.48;48.32;101680.44;5028111;28;20021;-64
2023/07/09 09:41:46;;;;;;;10.70;5.68;;;;;;;30.60;47.57;101680.09;5025997;28;20075;-64
2023/07/09 09:44:23;;;;;;;10.70;5.72;;;;;;;30.70;47.00;101673.75;5020568;28;20474;-64
2023/07/09 09:46:50;;;;;;;8.52;5.43;;;;;;;30.98;47.14;101672.97;5017308;28;20115;-64
2023/07/09 09:49:15;;;;;;;9.85;5.72;;;;;;;31.18;47.16;101671.19;5030048;28;20473;-64
2023/07/09 09:51:44;;;;;;;8.93;5.40;;;;;;;31.40;46.91;101664.09;5024442;28;20029;-64
2023/07/09 09:54:35;;;;;;;11.30;5.88;;;;;;;31.58;48.01;101659.78;5013365;28;20487;-65
2023/07/09 09:57:00;;;;;;;11.77;6.05;;;;;;;31.76;46.92;101654.66;5020402;28;20025;-64
2023/07/09 09:59:32;;;;;;;14.88;6.20;;;;;;;31.87;46.42;101653.44;5019513;28;20144;-65
2023/07/09 10:02:00;;;;;;;10.65;5.80;;;;;;;31.93;45.60;101646.78;5018287;28;20030;-65
2023/07/09 10:04:26;;;;;;;9.45;4.97;;;;;;;31.90;45.55;101642.69;5026360;28;20056;-65
2023/07/09 10:07:00;;;;;;;12.95;5.47;;;;;;;32.01;44.28;101638.69;5027811;28;20136;-65
2023/07/09 10:09:45;;;;;;;10.65;5.30;;;;;;;32.16;44.09;101645.09;5022315;28;20029;-65
2023/07/09 10:12:37;;;;;;;11.55;5.57;;;;;;;32.36;44.11;101650.31;5019312;28;20025;-64
2023/07/09 10:15:06;;;;;;;8.43;5.22;;;;;;;32.22;43.36;101644.72;5015996;28;20014;-65
2023/07/09 10:17:57;;;;;;;;;;;;;;;32.52;44.10;101645.41;5017686;28;20113;-65
2023/07/09 10:20:55;;;;;;;11.95;6.05;;;;;;;32.30;43.38;101654.25;5026973;28;19975;-64
2023/07/09 10:23:35;;;;;;;10.02;5.50;;;;;;;32.65;44.55;101661.16;5018762;28;20163;-64
2023/07/09 10:26:13;;;;;;;8.10;5.70;;;;;;;32.64;44.67;101668.56;5015050;28;20037;-65
2023/07/09 10:28:47;;;;;;;11.77;5.55;;;;;;;32.82;44.09;101669.72;5029702;28;20609;-65
2023/07/09 10:31:12;;;;;;;9.60;5.65;;;;;;;32.78;42.67;101673.34;5016312;28;20025;-65
2023/07/09 10:34:02;;;;;;;8.07;5.53;;;;;;;32.82;42.56;101677.97;5019651;28;20539;-65
2023/07/09 10:36:44;;;;;;;8.73;5.65;;;;;;;32.83;42.19;101676.84;5023207;28;20299;-65
2023/07/09 10:39:22;;;;;;;8.75;5.80;;;;;;;32.87;42.24;101677.88;5023710;28;20025;-65
2023/07/09 10:41:49;;;;;;;;;;;;;;;33.02;43.10;101679.56;5025693;28;20056;-65
2023/07/09 10:44:33;;;;;;;9.18;5.50;;;;;;;33.16;42.46;101685.91;5021756;28;20386;-65
2023/07/09 10:47:06;;;;;;;13.20;6.03;;;;;;;32.95;40.41;101690.13;5016462;28;20051;-64
2023/07/09 10:49:37;;;;;;;12.25;5.90;;;;;;;32.74;40.56;101686.88;5021064;28;20110;-65
2023/07/09 10:52:13;;;;;;;7.72;5.43;;;;;;;32.52;40.41;101687.47;5022258;28;20030;-65
2023/07/09 10:55:35;;;;;;;7.40;5.63;;;;;;;32.40;41.72;101678.88;5024969;28;20036;-64
2023/07/09 10:58:10;;;;;;;8.57;5.68;;;;;;;32.39;41.38;101670.91;4980586;28;20053;-65
2023/07/09 11:00:39;;;;;;;9.95;5.72;;;;;;;32.42;41.10;101667.56;4978241;28;20054;-65
2023/07/09 11:03:39;;;;;;;9.30;5.82;;;;;;;32.47;41.90;101668.31;5002471;28;20077;-65
2023/07/09 11:06:14;;;;;;;8.98;5.80;;;;;;;32.58;41.52;101661.53;5017062;28;20174;-65
2023/07/09 11:08:41;;;;;;;9.23;5.65;;;;;;;32.58;41.79;101664.28;5028052;28;20030;-64
2023/07/09 11:11:13;;;;;;;8.68;5.60;;;;;;;32.63;41.56;101655.13;5016129;28;20017;-65
2023/07/09 11:13:53;;;;;;;8.90;5.72;;;;;;;32.72;41.21;101658.84;5020352;28;20101;-65
2023/07/09 11:16:31;;;;;;;11.32;5.93;;;;;;;32.81;40.89;101664.50;5020428;28;20052;-65
2023/07/09 11:19:02;;;;;;;11.45;5.85;;;;;;;32.84;40.50;101664.72;5021682;28;20072;-65